createdAt,value
2023-05-31T00:00:53.862Z,94.84
2023-05-31T00:04:56.822Z,94.85
2023-05-31T00:08:59.563Z,96.10
2023-05-31T00:13:03.655Z,96.02
2023-05-31T00:17:47.826Z,96.14
2023-05-31T00:21:29.848Z,96.36
2023-05-31T00:25:32.954Z,96.77
2023-05-31T00:29:37.184Z,96.64
2023-05-31T00:33:40.716Z,97.58
2023-05-31T00:37:43.519Z,98.20
2023-05-31T00:41:46.487Z,98.42
2023-05-31T00:45:51.461Z,98.84
2023-05-31T00:49:54.477Z,98.68
2023-05-31T00:53:58.906Z,98.47
2023-05-31T00:58:01.889Z,98.83
2023-05-31T01:02:07.042Z,99.44
2023-05-31T01:06:11.001Z,99.59
2023-05-31T01:10:15.377Z,100.00
2023-05-31T01:14:29.311Z,100.00
2023-05-31T01:18:38.997Z,100.00
2023-05-31T01:22:59.080Z,100.00
2023-05-31T01:27:06.345Z,100.00
2023-05-31T01:31:11.388Z,100.00
2023-05-31T01:35:15.821Z,100.00
2023-05-31T01:39:21.732Z,100.00
2023-05-31T01:43:28.496Z,100.00
2023-05-31T01:47:34.066Z,100.00
2023-05-31T01:51:40.102Z,100.00
2023-05-31T01:55:44.391Z,100.00
2023-05-31T01:59:49.514Z,100.00
2023-05-31T02:03:53.304Z,100.00
2023-05-31T02:07:57.059Z,100.00
2023-05-31T02:12:00.901Z,100.00
2023-05-31T02:16:05.637Z,100.00
2023-05-31T02:20:11.207Z,100.00
2023-05-31T02:24:16.112Z,100.00
2023-05-31T02:28:19.715Z,100.00
2023-05-31T02:32:24.604Z,100.00
2023-05-31T02:36:31.241Z,100.00
2023-05-31T02:40:34.161Z,100.00
2023-05-31T02:44:36.947Z,100.00
2023-05-31T02:48:42.265Z,100.00
2023-05-31T02:52:46.030Z,100.00
2023-05-31T02:57:11.806Z,100.00
2023-05-31T03:01:16.000Z,100.00
2023-05-31T03:05:41.519Z,100.00
2023-05-31T03:09:45.307Z,100.00
2023-05-31T03:13:48.597Z,100.00
2023-05-31T03:17:51.592Z,100.00
2023-05-31T03:21:55.974Z,100.00
2023-05-31T03:26:00.955Z,100.00
2023-05-31T03:30:04.175Z,100.00
2023-05-31T03:34:11.166Z,100.00
2023-05-31T03:38:16.163Z,100.00
2023-05-31T03:42:19.074Z,100.00
2023-05-31T03:46:21.871Z,100.00
2023-05-31T03:50:25.703Z,100.00
2023-05-31T03:54:31.206Z,100.00
2023-05-31T03:58:34.042Z,100.00
2023-05-31T04:02:38.962Z,100.00
2023-05-31T04:06:44.689Z,100.00
2023-05-31T04:10:49.051Z,100.00
2023-05-31T04:14:52.318Z,100.00
2023-05-31T04:18:59.809Z,100.00
2023-05-31T04:23:03.706Z,100.00
2023-05-31T04:27:19.410Z,100.00
2023-05-31T04:31:35.236Z,100.00
2023-05-31T04:35:42.158Z,100.00
2023-05-31T04:39:45.738Z,100.00
2023-05-31T04:43:51.598Z,100.00
2023-05-31T04:47:54.431Z,100.00
2023-05-31T04:51:57.823Z,100.00
2023-05-31T04:56:05.280Z,100.00
2023-05-31T05:00:15.225Z,100.00
2023-05-31T05:04:26.055Z,100.00
2023-05-31T05:08:29.050Z,100.00
2023-05-31T05:12:31.977Z,100.00
2023-05-31T05:16:36.527Z,100.00
2023-05-31T05:20:40.729Z,100.00
2023-05-31T05:24:45.202Z,100.00
2023-05-31T05:28:48.346Z,100.00
2023-05-31T05:32:52.896Z,100.00
2023-05-31T05:36:58.275Z,100.00
2023-05-31T05:41:03.220Z,100.00
2023-05-31T05:45:08.027Z,100.00
2023-05-31T05:49:13.220Z,100.00
2023-05-31T05:53:16.617Z,100.00
2023-05-31T05:57:20.112Z,100.00
2023-05-31T06:01:28.007Z,100.00
2023-05-31T06:05:33.890Z,100.00
2023-05-31T06:09:36.930Z,100.00
2023-05-31T06:13:40.006Z,100.00
2023-05-31T06:17:43.857Z,100.00
2023-05-31T06:21:48.632Z,99.15
2023-05-31T06:25:53.269Z,97.53
2023-05-31T06:29:59.463Z,95.39
2023-05-31T06:34:07.235Z,92.68
2023-05-31T06:38:15.864Z,89.85
2023-05-31T06:42:22.432Z,86.93
2023-05-31T06:46:33.847Z,85.20
2023-05-31T06:50:55.485Z,82.24
2023-05-31T06:55:18.548Z,81.61
2023-05-31T06:59:22.459Z,78.29
2023-05-31T07:03:25.385Z,76.44
2023-05-31T07:07:28.273Z,74.06
2023-05-31T07:11:32.678Z,73.03
2023-05-31T07:15:36.829Z,71.81
2023-05-31T07:19:45.732Z,69.46
2023-05-31T07:23:48.495Z,67.26
2023-05-31T07:27:52.804Z,66.02
2023-05-31T07:31:55.604Z,65.12
2023-05-31T07:36:00.601Z,63.86
2023-05-31T07:40:04.672Z,63.20
2023-05-31T07:44:08.835Z,60.84
2023-05-31T07:48:11.570Z,60.15
2023-05-31T07:52:14.298Z,59.04
2023-05-31T07:56:17.070Z,57.21
2023-05-31T08:00:21.713Z,56.73
2023-05-31T08:04:25.215Z,54.68
2023-05-31T08:08:28.634Z,54.51
2023-05-31T08:12:32.167Z,52.93
2023-05-31T08:16:37.946Z,54.17
2023-05-31T08:20:41.985Z,53.08
2023-05-31T08:24:45.800Z,51.73
2023-05-31T08:28:48.682Z,51.41
2023-05-31T08:32:52.837Z,51.66
2023-05-31T08:36:56.145Z,51.11
2023-05-31T08:41:01.943Z,49.11
2023-05-31T08:45:06.126Z,49.47
2023-05-31T08:49:12.908Z,47.85
2023-05-31T08:53:16.747Z,48.43
2023-05-31T08:57:20.474Z,47.45
2023-05-31T09:01:26.034Z,46.38
2023-05-31T09:05:30.298Z,45.39
2023-05-31T09:09:33.146Z,44.86
2023-05-31T09:13:35.978Z,44.31
2023-05-31T09:17:38.790Z,43.42
2023-05-31T09:21:45.159Z,43.29
2023-05-31T09:25:49.120Z,42.17
2023-05-31T09:29:55.937Z,41.76
2023-05-31T09:33:58.979Z,41.15
2023-05-31T09:38:06.613Z,42.13
2023-05-31T09:42:15.055Z,41.05
2023-05-31T09:46:20.983Z,39.77
2023-05-31T09:50:25.331Z,40.30
2023-05-31T09:54:29.566Z,40.04
2023-05-31T09:58:33.743Z,38.43
2023-05-31T10:02:37.137Z,38.81
2023-05-31T10:06:39.915Z,37.87
2023-05-31T10:10:44.112Z,37.15
2023-05-31T10:14:51.802Z,37.05
2023-05-31T10:18:59.086Z,36.70
2023-05-31T10:23:05.440Z,36.39
2023-05-31T10:27:15.823Z,36.48
2023-05-31T10:31:19.993Z,36.20
2023-05-31T10:35:23.103Z,36.03
2023-05-31T10:39:32.566Z,35.52
2023-05-31T10:43:42.004Z,35.02
2023-05-31T10:47:51.989Z,34.28
2023-05-31T10:51:54.814Z,34.50
2023-05-31T10:56:04.504Z,35.32
2023-05-31T11:00:12.860Z,35.61
2023-05-31T11:04:23.554Z,34.73
2023-05-31T11:08:26.823Z,34.60
2023-05-31T11:12:41.939Z,33.79
2023-05-31T11:17:23.602Z,33.24
2023-05-31T11:21:50.149Z,33.62
2023-05-31T11:26:21.448Z,33.66
2023-05-31T11:30:24.419Z,33.69
2023-05-31T11:34:30.217Z,33.88
2023-05-31T11:38:34.470Z,33.93
2023-05-31T11:42:39.749Z,33.56
2023-05-31T11:46:46.598Z,33.29
2023-05-31T11:50:49.506Z,33.90
2023-05-31T11:54:55.862Z,33.91
2023-05-31T11:59:11.698Z,33.65
2023-05-31T12:03:18.060Z,33.22
2023-05-31T12:07:21.267Z,32.68
2023-05-31T12:11:26.311Z,32.57
2023-05-31T12:15:32.362Z,32.42
2023-05-31T12:19:38.000Z,31.58
2023-05-31T12:23:54.073Z,31.13
2023-05-31T12:27:58.338Z,32.09
2023-05-31T12:32:06.511Z,31.54
2023-05-31T12:36:14.466Z,32.10
2023-05-31T12:40:22.868Z,31.64
2023-05-31T12:44:28.572Z,32.56
2023-05-31T12:48:33.171Z,32.05
2023-05-31T12:52:37.271Z,32.79
2023-05-31T12:56:40.232Z,32.47
2023-05-31T13:00:45.223Z,31.21
2023-05-31T13:04:47.994Z,31.02
2023-05-31T13:08:50.853Z,32.08
2023-05-31T13:12:53.590Z,31.76
2023-05-31T13:16:58.689Z,32.12
2023-05-31T13:21:02.110Z,31.67
2023-05-31T13:25:06.288Z,31.33
2023-05-31T13:29:09.183Z,30.78
2023-05-31T13:33:14.251Z,31.22
2023-05-31T13:37:21.697Z,30.79
2023-05-31T13:41:24.539Z,31.19
2023-05-31T13:45:33.674Z,31.39
2023-05-31T13:49:38.247Z,31.43
2023-05-31T13:53:41.052Z,31.28
2023-05-31T13:57:43.860Z,31.12
2023-05-31T14:01:46.729Z,30.64
2023-05-31T14:05:51.740Z,31.92
2023-05-31T14:09:54.526Z,31.89
2023-05-31T14:13:57.351Z,32.45
2023-05-31T14:18:00.279Z,32.21
2023-05-31T14:22:04.944Z,32.20
2023-05-31T14:26:09.819Z,32.02
2023-05-31T14:30:14.697Z,32.83
2023-05-31T14:34:17.593Z,32.89
2023-05-31T14:38:35.201Z,31.66
2023-05-31T14:42:38.886Z,32.64
2023-05-31T14:46:41.874Z,32.50
2023-05-31T14:50:44.805Z,32.75
2023-05-31T14:54:49.121Z,33.09
2023-05-31T14:58:53.056Z,32.58
2023-05-31T15:02:55.907Z,32.74
2023-05-31T15:06:58.787Z,33.31
2023-05-31T15:11:03.193Z,33.10
2023-05-31T15:15:07.629Z,33.14
2023-05-31T15:19:10.717Z,33.93
2023-05-31T15:23:13.481Z,33.74
2023-05-31T15:27:17.682Z,33.73
2023-05-31T15:31:21.416Z,33.86
2023-05-31T15:35:24.193Z,33.27
2023-05-31T15:39:26.931Z,34.37
2023-05-31T15:43:32.036Z,33.99
2023-05-31T15:47:35.039Z,34.24
2023-05-31T15:51:39.350Z,33.78
2023-05-31T15:55:45.115Z,33.79
2023-05-31T15:59:51.697Z,34.09
2023-05-31T16:04:04.072Z,34.10
2023-05-31T16:08:07.258Z,34.94
2023-05-31T16:12:12.390Z,33.89
2023-05-31T16:16:19.268Z,35.30
2023-05-31T16:20:25.573Z,37.22
2023-05-31T16:24:51.810Z,37.80
2023-05-31T16:29:00.523Z,38.48
2023-05-31T16:33:06.804Z,38.87
2023-05-31T16:37:10.878Z,39.07
2023-05-31T16:41:16.046Z,40.06
2023-05-31T16:45:19.404Z,40.18
2023-05-31T16:49:29.791Z,40.59
2023-05-31T16:53:34.466Z,41.51
2023-05-31T16:57:39.042Z,41.81
2023-05-31T17:01:47.466Z,42.48
2023-05-31T17:06:20.435Z,41.84
2023-05-31T17:10:43.442Z,41.63
2023-05-31T17:15:02.735Z,41.54
2023-05-31T17:19:13.181Z,42.14
2023-05-31T17:23:24.493Z,41.96
2023-05-31T17:27:28.364Z,42.50
2023-05-31T17:31:34.405Z,41.69
2023-05-31T17:35:40.202Z,42.36
2023-05-31T17:39:49.092Z,42.89
2023-05-31T17:43:54.070Z,43.41
2023-05-31T17:48:02.162Z,43.55
2023-05-31T17:52:11.337Z,44.18
2023-05-31T17:56:15.990Z,44.27
2023-05-31T18:00:34.703Z,44.55
2023-05-31T18:04:56.017Z,44.32
2023-05-31T18:09:26.603Z,44.60
2023-05-31T18:13:37.330Z,44.67
2023-05-31T18:17:52.528Z,45.20
2023-05-31T18:22:09.332Z,45.69
2023-05-31T18:26:12.302Z,47.16
2023-05-31T18:30:17.108Z,48.55
2023-05-31T18:34:21.608Z,49.89
2023-05-31T18:38:25.099Z,50.67
2023-05-31T18:42:28.190Z,52.34
2023-05-31T18:46:38.414Z,53.62
2023-05-31T18:50:58.910Z,54.16
2023-05-31T18:55:01.958Z,54.60
2023-05-31T18:59:18.069Z,56.07
2023-05-31T19:03:37.014Z,57.53
2023-05-31T19:07:47.354Z,58.97
2023-05-31T19:12:01.831Z,60.98
2023-05-31T19:16:04.954Z,62.13
2023-05-31T19:20:11.485Z,63.30
2023-05-31T19:24:15.784Z,64.09
2023-05-31T19:28:19.251Z,65.12
2023-05-31T19:32:22.764Z,66.20
2023-05-31T19:36:27.693Z,67.05
2023-05-31T19:40:31.213Z,68.23
2023-05-31T19:44:44.809Z,68.74
2023-05-31T19:48:59.900Z,70.70
2023-05-31T19:53:05.105Z,71.91
2023-05-31T19:57:09.300Z,72.08
2023-05-31T20:01:12.438Z,72.52
2023-05-31T20:05:15.375Z,72.76
2023-05-31T20:09:27.470Z,73.53
2023-05-31T20:13:30.733Z,75.00
2023-05-31T20:17:33.905Z,75.41
2023-05-31T20:21:37.307Z,77.38
2023-05-31T20:25:41.983Z,77.72
2023-05-31T20:29:46.839Z,78.64
2023-05-31T20:33:52.861Z,79.64
2023-05-31T20:38:02.718Z,79.38
2023-05-31T20:42:09.177Z,80.53
2023-05-31T20:46:13.023Z,80.83
2023-05-31T20:50:16.062Z,81.14
2023-05-31T20:54:19.012Z,81.92
2023-05-31T20:58:23.598Z,82.90
2023-05-31T21:02:26.939Z,84.25
2023-05-31T21:06:31.730Z,84.77
2023-05-31T21:10:34.726Z,85.51
2023-05-31T21:14:39.337Z,86.24
2023-05-31T21:18:42.183Z,86.89
2023-05-31T21:22:46.541Z,87.03
2023-05-31T21:26:50.716Z,88.07
2023-05-31T21:31:03.482Z,88.00
2023-05-31T21:35:07.168Z,87.44
2023-05-31T21:39:09.925Z,87.88
2023-05-31T21:43:13.433Z,89.10
2023-05-31T21:47:17.613Z,89.16
2023-05-31T21:51:20.607Z,89.87
2023-05-31T21:55:23.714Z,89.58
2023-05-31T21:59:26.550Z,89.75
2023-05-31T22:03:30.633Z,90.34
2023-05-31T22:07:37.189Z,90.25
2023-05-31T22:11:40.475Z,90.98
2023-05-31T22:15:51.033Z,92.40
2023-05-31T22:20:00.941Z,92.36
2023-05-31T22:24:05.005Z,91.58
2023-05-31T22:28:07.906Z,91.88
2023-05-31T22:32:10.849Z,92.62
2023-05-31T22:36:15.051Z,93.76
2023-05-31T22:40:17.892Z,93.97
2023-05-31T22:44:20.679Z,94.15
2023-05-31T22:48:25.854Z,94.09
2023-05-31T22:52:29.968Z,94.07
2023-05-31T22:56:32.771Z,94.58
2023-05-31T23:00:35.546Z,95.10
2023-05-31T23:04:38.291Z,95.21
2023-05-31T23:08:44.866Z,95.90
2023-05-31T23:12:48.194Z,95.97
2023-05-31T23:16:52.322Z,97.08
2023-05-31T23:20:55.912Z,96.87
2023-05-31T23:25:00.626Z,96.81
2023-05-31T23:29:04.154Z,96.97
2023-05-31T23:33:07.030Z,96.92
2023-05-31T23:37:10.350Z,97.11
2023-05-31T23:41:14.836Z,98.16
2023-05-31T23:45:17.825Z,98.14
2023-05-31T23:49:21.801Z,97.33
2023-05-31T23:53:24.999Z,97.31
2023-05-31T23:57:31.526Z,96.46
